FBSKFMST

Guest
Details From FBSK - Sir Seretse Khama Intl
To FMST - Toliara
Flight Number -
Tags Generated
Created
Modified
Stats Distance 980 nm / 1,814 km
Max Altitude 0 ft / 0 m
Waypoints 2
Social Downloads 0
Likes 0
Share VATSIM

Download

Looking for another format? Having issues loading an existing format? Contact us
Advertisement - Login to hide

Notes

Generated

Route

FBSK FMST

ID Type Via Altitude Latitude Longitude Leg Dist Tot Dist Heading (true) Name
O FBSK APT - 0 ft / 0 m -24.56167˚ 25.90517˚ - 0 nm - -
O FMST APT - 0 ft / 0 m -23.39136˚ 43.72490˚ 979 nm 979 nm 90° / 82° -

Altitude Profile

Advertisement - Login to hide

Weather


0- 5 10 15 20 25 30 35+ Temperature / ° C

Clouds and Precipitation
Forecast for 2017-12-14 18:00 UTC. Updated 2 hours ago

Ground ~20,000 ft ~40,000 ft Winds

FBSK

Details ICAO FBSK (GBE)
Name SIR SERETSE KHAMA INTL
Region Botswana
Timezone Africa/Gaborone (UTC+2.0)
Stats Elevation 3,299 ft / 1,006 m (AMSL)
Location -24.555225° 25.918208°
Runways 1
Magnetic Variation 15.676° W

METAR

FBSK 141500Z 27013KT CAVOK 34/M07 Q1012 NOSIG

Decode

TAF

TAF FBSK 140300Z 1406/1512 23010KT CAVOK

Decode

Departure Runways

ID Width Length Bearing (true) Bearing (mag) Surface Threshold Offset Overrun Length
08 148 ft / 45 m 9,849 ft / 3,002 m 61.48° 77.16° Concrete 0 ft / 0 m 197 ft / 60 m
26 148 ft / 45 m 9,849 ft / 3,002 m 241.47° 257.15° Concrete 0 ft / 0 m 197 ft / 60 m

FMST

Details ICAO FMST (TLE)
Name TOLIARA
Region Comoros, Mayotte, Réunion and Madagascar
Timezone Indian/Antananarivo (UTC+3.0)
Stats Elevation 29 ft / 9 m (AMSL)
Location -23.387333° 43.728634°
Runways 2
Magnetic Variation 20.463° W

METAR

Not found

TAF

TAF FMST 141100Z 1412/1512 30015G25KT 9999 SCT020 SCT040 PROB40 TEMPO 1414/1506 4000 TSRA FEW010 BKN015CB BECMG 1415/1418 26008KT

Decode

Destination Runways

ID Width Length Bearing (true) Bearing (mag) Surface Threshold Offset Overrun Length
04 98 ft / 30 m 6,583 ft / 2,007 m 23.34° 43.80° Asphalt 0 ft / 0 m 100 ft / 30 m
11 42 ft / 13 m 2,624 ft / 800 m 89.07° 109.53° Asphalt 0 ft / 0 m 0 ft / 0 m
22 98 ft / 30 m 6,583 ft / 2,007 m 203.34° 223.80° Asphalt 0 ft / 0 m 100 ft / 30 m
29 42 ft / 13 m 2,624 ft / 800 m 269.07° 289.53° Asphalt 0 ft / 0 m 0 ft / 0 m